Latest METARs, TAFs and NOTAMs for EINN


---------------------------------------------------------------------------
	(OBSERVATIONS)
EINN 211700Z 29024G38KT 9000 -SHRA FEW016 SCT018CB BKN050 10/08
    Q1004 NOSIG=
EINN 211630Z 29025G38KT 9000 -SHRA SCT018CB BKN060 10/08 Q1003
    NOSIG=
EINN 211600Z 29027G39KT 9000 -SHRA SCT018CB BKN060 11/08 Q1002
    NOSIG=
EINN 211530Z 29031G47KT 9999 -SHRA FEW014 SCT018CB BKN050 11/09
    Q1001 NOSIG=
EINN 211500Z 29026G44KT 9999 FEW014 FEW018CB SCT038 11/08 Q1000
    NOSIG=
EINN 211430Z 29026G40KT 9000 -SHRA FEW014 SCT018CB BKN038 12/09
    Q0999 NOSIG=
---------------------------------------------------------------------------
	(FC)
Sorry, FC For EINN Not Found
---------------------------------------------------------------------------
	(TERMINAL AREA FORECAST)
EINN 211700Z 2118/2218 29025G40KT 9999 FEW015 SCT025
    TEMPO 2118/2208 5000 -SHRA FEW020CB BKN025
    BECMG 2121/2124 30018G30KT
    BECMG 2202/2205 27014KT
    BECMG 2214/2217 18007KT SCT010 BKN015=
---------------------------------------------------------------------------
	(NOTAMS)


EINN A1677/17 TRIGGER NOTAM IRELAND AIRAC AMENDMENT NR 009 EFFECTIVE
    DATE 12 OCT 2017. INCLUDED IN THIS AMENDMENT IS THE REVISED
    SECTION EINN AD 2.22 FLIGHT PROCEDURES. 12 OCT 00:00 2017
    UNTIL 26 OCT 23:59 2017. CREATED: 25 AUG 10:38 2017

EINN A2039/17 TRIGGER NOTAM IRELAND AIRAC AMENDMENT NR 010 EFFECTIVE
    DATE 09 NOV 2017. INCLUDED IN THIS AMENDMENT IS THE REVISED
    EINN AD 2 REVISED ATIS FREQUENCY. 09 NOV 00:00 2017 UNTIL
    24 NOV 23:59 2017. CREATED: 25 SEP 16:25 2017

EINN A2245/17 CANCELLATION OF AIP SUPPLEMENT 03/17, SHANNON AIRPORT
    (EINN) RUNWAY 06/24 REHABILITATION WORKS COMPLETED. 16 OCT
    11:50 2017 UNTIL 30 OCT 12:00 2017. CREATED: 16 OCT 11:54
    2017

EINN A2284/17 RESCUE AND FIREFIGHTING SERVICES CHANGED TO CAT
    7, CAT 9 AVAILABLE IF REQUESTED, 12 HOURS PRIOR NOTIFICATION
    REQUIRED. DAILY 2200-0600, 21 OCT 22:00 2017 UNTIL 31 OCT
    06:00 2017. CREATED: 20 OCT 21:28 2017

EINN B1142/15 HOLDING PROCEDURE CHANGED. RATE OF DESCENT IN HOLDING
    PATTERNS AMENDED TO: A STANDARD RATE OF DESCENT OF 1000FT
    PER MIN IN HOLDING PATTERNS WILL BE USED UNLESS OTHERWISE
    INSTRUCTED BY ATC. PILOTS MUST ADVISE ATC IF UNABLE TO COMPLY
    WITH THE STANDARD RATE OF DESCENT. REF AIP EINN AD 2.22 SECTION
    9. 02 OCT 18:07 2015 UNTIL PERM. CREATED: 01 MAY 11:24 2017

---------------------------------------------------------------------------